Adell, Wisconsin
Current Conditions -  °F | °C
As of 3:53 PM on Saturday 25 Oct 2014 (Local Time) from KSBM Reporting Station
Clear Clear  
Wind Chill: 64°   Ceiling: Unl
Heat Index: 64°   Visibility: 10mi
Dew Point: 30°   Wind: 21mph
Humidity: 28%   Direction: 290°WNW
Pressure: 29.84"   Gusts: 32mph
Location:  43.62°N, 87.95°W
Report Text: KSBM 252053Z AUTO 29018G28KT 10SM CLR 18/M01 A2984 RMK AO2 PK WND 27030/2008 SLP104 T01781011 58003
Loading
Personal Weather Stations






























Interactive Weather Map New forecast layout! Learn more

10-Day Weather Forecast

Advertisements
Track Severe Weather on mobile